createdAt,value
2023-03-08T00:01:22.530Z,1002.96
2023-03-08T00:06:23.623Z,1002.95
2023-03-08T00:11:24.826Z,1002.86
2023-03-08T00:16:27.333Z,1002.77
2023-03-08T00:21:26.812Z,1002.73
2023-03-08T00:26:28.008Z,1002.78
2023-03-08T00:31:29.275Z,1002.77
2023-03-08T00:36:30.497Z,1002.75
2023-03-08T00:41:31.718Z,1002.73
2023-03-08T00:46:32.928Z,1002.90
2023-03-08T00:51:34.088Z,1002.80
2023-03-08T00:56:35.225Z,1002.71
2023-03-08T01:01:36.408Z,1002.77
2023-03-08T01:06:37.577Z,1002.82
2023-03-08T01:11:38.773Z,1002.82
2023-03-08T01:16:41.054Z,1002.69
2023-03-08T01:21:40.239Z,1002.54
2023-03-08T01:26:41.372Z,1002.38
2023-03-08T01:31:42.486Z,1002.34
2023-03-08T01:36:43.753Z,1002.13
2023-03-08T01:41:45.945Z,1002.06
2023-03-08T01:46:45.095Z,1001.97
2023-03-08T01:51:46.284Z,1001.86
2023-03-08T01:56:47.428Z,1001.73
2023-03-08T02:01:48.599Z,1001.43
2023-03-08T02:06:50.137Z,1001.39
2023-03-08T02:11:49.286Z,1001.34
2023-03-08T02:16:50.399Z,1001.18
2023-03-08T02:21:51.496Z,1001.04
2023-03-08T02:26:52.738Z,1001.01
2023-03-08T02:31:54.324Z,1000.88
2023-03-08T02:36:53.490Z,1000.85
2023-03-08T02:41:54.648Z,1000.83
2023-03-08T02:46:55.817Z,1000.83
2023-03-08T02:51:57.048Z,1000.88
2023-03-08T02:56:58.342Z,1000.94
2023-03-08T03:01:59.543Z,1001.04
2023-03-08T03:07:01.673Z,1001.04
2023-03-08T03:12:00.830Z,1001.00
2023-03-08T03:17:02.004Z,1000.92
2023-03-08T03:22:03.176Z,1000.76
2023-03-08T03:27:05.278Z,1000.76
2023-03-08T03:32:05.424Z,1000.69
2023-03-08T03:37:04.564Z,1000.54
2023-03-08T03:42:05.722Z,1000.50
2023-03-08T03:47:06.864Z,1000.36
2023-03-08T03:52:08.020Z,1000.27
2023-03-08T03:57:09.193Z,1000.20
2023-03-08T04:02:10.350Z,1000.08
2023-03-08T04:07:11.557Z,1000.00
2023-03-08T04:12:12.653Z,999.92
2023-03-08T04:17:14.788Z,999.80
2023-03-08T04:22:13.928Z,999.61
2023-03-08T04:27:15.078Z,999.53
2023-03-08T04:32:16.227Z,999.28
2023-03-08T04:37:17.506Z,999.35
2023-03-08T04:42:18.673Z,999.21
2023-03-08T04:47:20.831Z,999.11
2023-03-08T04:52:20.000Z,999.11
2023-03-08T04:57:21.136Z,999.13
2023-03-08T05:02:22.318Z,999.07
2023-03-08T05:07:23.476Z,999.02
2023-03-08T05:12:24.619Z,998.92
2023-03-08T05:17:25.828Z,998.83
2023-03-08T05:22:27.012Z,998.82
2023-03-08T05:27:28.106Z,998.73
2023-03-08T05:32:29.339Z,998.71
2023-03-08T05:37:30.467Z,998.72
2023-03-08T05:42:31.704Z,998.75
2023-03-08T05:47:32.816Z,998.69
2023-03-08T05:52:34.781Z,998.72
2023-03-08T05:57:33.979Z,998.70
2023-03-08T06:02:39.063Z,998.47
2023-03-08T06:07:36.198Z,998.54
2023-03-08T06:12:37.296Z,998.59
2023-03-08T06:17:41.417Z,998.58
2023-03-08T06:22:38.626Z,998.51
2023-03-08T06:27:39.760Z,998.44
2023-03-08T06:32:40.950Z,998.45
2023-03-08T06:37:43.081Z,998.50
2023-03-08T06:42:42.231Z,998.44
2023-03-08T06:47:43.406Z,998.26
2023-03-08T06:52:44.560Z,998.03
2023-03-08T06:57:45.684Z,998.26
2023-03-08T07:02:46.880Z,998.10
2023-03-08T07:07:48.084Z,998.02
2023-03-08T07:12:49.239Z,997.87
2023-03-08T07:17:51.358Z,997.63
2023-03-08T07:22:50.493Z,997.62
2023-03-08T07:27:51.642Z,997.77
2023-03-08T07:32:53.868Z,997.74
2023-03-08T07:37:53.113Z,997.71
2023-03-08T07:42:54.253Z,997.54
2023-03-08T07:47:55.431Z,997.29
2023-03-08T07:52:56.549Z,997.12
2023-03-08T07:57:58.749Z,996.98
2023-03-08T08:02:57.886Z,997.06
2023-03-08T08:07:59.016Z,997.08
2023-03-08T08:13:00.190Z,996.90
2023-03-08T08:18:01.656Z,996.60
2023-03-08T08:23:02.796Z,996.78
2023-03-08T08:28:02.997Z,996.68
2023-03-08T08:33:02.126Z,996.70
2023-03-08T08:38:04.251Z,996.85
2023-03-08T08:43:03.322Z,996.91
2023-03-08T08:48:05.470Z,997.09
2023-03-08T08:53:05.672Z,997.07
2023-03-08T08:58:05.771Z,997.12
2023-03-08T09:03:05.924Z,997.18
2023-03-08T09:08:05.070Z,997.15
2023-03-08T09:13:07.196Z,997.01
2023-03-08T09:18:06.302Z,997.15
2023-03-08T09:23:07.442Z,997.13
2023-03-08T09:28:08.766Z,997.10
2023-03-08T09:33:10.873Z,997.22
2023-03-08T09:38:09.987Z,997.33
2023-03-08T09:43:12.120Z,997.22
2023-03-08T09:48:11.432Z,997.04
2023-03-08T09:53:12.606Z,997.07
2023-03-08T09:58:13.703Z,996.97
2023-03-08T10:03:15.857Z,997.01
2023-03-08T10:08:15.968Z,997.08
2023-03-08T10:13:16.135Z,996.97
2023-03-08T10:18:16.471Z,997.10
2023-03-08T10:23:16.554Z,996.95
2023-03-08T10:28:15.728Z,997.09
2023-03-08T10:33:17.911Z,997.08
2023-03-08T10:38:17.002Z,997.08
2023-03-08T10:43:18.121Z,997.05
2023-03-08T10:48:19.364Z,997.17
2023-03-08T10:53:20.475Z,997.35
2023-03-08T10:58:22.600Z,997.32
2023-03-08T11:03:22.064Z,997.30
2023-03-08T11:08:21.221Z,997.27
2023-03-08T11:13:22.384Z,997.30
2023-03-08T11:18:24.503Z,997.19
2023-03-08T11:23:24.539Z,997.40
2023-03-08T11:28:23.643Z,997.59
2023-03-08T11:33:25.968Z,997.41
2023-03-08T11:38:25.177Z,997.43
2023-03-08T11:43:26.264Z,997.43
2023-03-08T11:48:27.398Z,997.45
2023-03-08T11:53:29.511Z,997.54
2023-03-08T11:58:29.645Z,997.50
2023-03-08T12:03:28.807Z,997.31
2023-03-08T12:08:29.967Z,997.36
2023-03-08T12:13:31.070Z,997.40
2023-03-08T12:18:32.163Z,997.53
2023-03-08T12:23:34.293Z,997.46
2023-03-08T12:28:33.378Z,997.16
2023-03-08T12:33:34.956Z,997.19
2023-03-08T12:38:38.036Z,997.13
2023-03-08T12:43:57.776Z,997.19
2023-03-08T12:48:36.010Z,997.27
2023-03-08T12:53:45.196Z,997.16
2023-03-08T12:58:38.293Z,997.30
2023-03-08T13:03:38.410Z,997.32
2023-03-08T13:08:38.962Z,997.47
2023-03-08T13:13:39.655Z,997.25
2023-03-08T13:18:39.935Z,997.32
2023-03-08T13:23:39.165Z,997.36
2023-03-08T13:28:47.006Z,997.27
2023-03-08T13:33:39.742Z,997.05
2023-03-08T13:38:40.898Z,996.70
2023-03-08T13:43:42.032Z,996.51
2023-03-08T13:48:43.152Z,996.57
2023-03-08T13:53:45.318Z,996.79
2023-03-08T13:58:44.423Z,996.78
2023-03-08T14:03:45.559Z,996.63
2023-03-08T14:08:47.698Z,996.61
2023-03-08T14:13:47.848Z,996.55
2023-03-08T14:18:47.945Z,996.42
2023-03-08T14:23:48.116Z,996.37
2023-03-08T14:28:48.250Z,996.21
2023-03-08T14:33:47.377Z,996.08
2023-03-08T14:38:50.484Z,996.23
2023-03-08T14:43:50.600Z,995.98
2023-03-08T14:48:50.039Z,996.07
2023-03-08T14:53:51.151Z,996.09
2023-03-08T14:58:52.274Z,996.05
2023-03-08T15:03:53.438Z,995.97
2023-03-08T15:08:54.621Z,995.71
2023-03-08T15:13:55.927Z,995.71
2023-03-08T15:18:57.085Z,995.73
2023-03-08T15:23:59.212Z,995.72
2023-03-08T15:28:58.300Z,995.73
2023-03-08T15:34:00.560Z,995.54
2023-03-08T15:38:59.737Z,995.53
2023-03-08T15:44:01.816Z,995.52
2023-03-08T15:49:01.919Z,995.74
2023-03-08T15:54:02.060Z,995.62
2023-03-08T15:59:02.169Z,995.67
2023-03-08T16:04:01.337Z,995.56
2023-03-08T16:09:03.509Z,995.63
2023-03-08T16:14:02.642Z,995.61
2023-03-08T16:19:03.750Z,995.50
2023-03-08T16:24:05.942Z,995.34
2023-03-08T16:29:05.061Z,995.29
2023-03-08T16:34:07.183Z,995.16
2023-03-08T16:39:07.372Z,995.20
2023-03-08T16:44:06.496Z,995.29
2023-03-08T16:49:08.685Z,994.99
2023-03-08T16:54:07.963Z,994.70
2023-03-08T16:59:10.120Z,995.05
2023-03-08T17:04:09.292Z,994.74
2023-03-08T17:09:11.901Z,995.16
2023-03-08T17:14:12.282Z,995.40
2023-03-08T17:19:12.625Z,995.58
2023-03-08T17:24:12.909Z,995.54
2023-03-08T17:29:14.269Z,995.63
2023-03-08T17:34:13.483Z,995.79
2023-03-08T17:39:15.764Z,996.00
2023-03-08T17:44:14.952Z,996.13
2023-03-08T17:49:17.295Z,996.14
2023-03-08T17:54:17.759Z,996.17
2023-03-08T17:59:17.269Z,996.20
2023-03-08T18:04:17.340Z,996.30
2023-03-08T18:09:18.565Z,995.97
2023-03-08T18:14:18.771Z,995.77
2023-03-08T18:19:18.284Z,995.61
2023-03-08T18:24:18.806Z,995.99
2023-03-08T18:29:18.249Z,996.12
2023-03-08T18:34:20.673Z,995.80
2023-03-08T18:39:20.875Z,995.84
2023-03-08T18:44:21.091Z,995.94
2023-03-08T18:49:20.349Z,995.97
2023-03-08T18:54:21.876Z,996.09
2023-03-08T18:59:28.406Z,995.84
2023-03-08T19:04:20.885Z,996.11
2023-03-08T19:09:22.136Z,995.96
2023-03-08T19:14:24.270Z,996.05
2023-03-08T19:19:24.701Z,996.16
2023-03-08T19:24:25.133Z,995.92
2023-03-08T19:30:44.558Z,996.27
2023-03-08T19:34:26.060Z,996.16
2023-03-08T19:39:26.624Z,996.22
2023-03-08T19:44:25.815Z,996.42
2023-03-08T19:49:27.350Z,996.17
2023-03-08T19:54:26.991Z,996.19
2023-03-08T19:59:26.554Z,996.11
2023-03-08T20:04:27.601Z,996.18
2023-03-08T20:09:27.921Z,996.79
2023-03-08T20:14:29.742Z,996.59
2023-03-08T20:19:29.165Z,996.38
2023-03-08T20:24:31.631Z,996.36
2023-03-08T20:29:30.882Z,996.40
2023-03-08T20:34:33.369Z,996.30
2023-03-08T20:39:33.907Z,996.31
2023-03-08T20:44:33.116Z,996.43
2023-03-08T20:49:35.331Z,996.53
2023-03-08T20:54:36.270Z,996.34
2023-03-08T20:59:36.818Z,996.27
2023-03-08T21:04:36.346Z,996.23
2023-03-08T21:09:35.889Z,996.11
2023-03-08T21:14:35.445Z,996.27
2023-03-08T21:19:35.037Z,996.30
2023-03-08T21:24:36.303Z,996.08
2023-03-08T21:29:35.605Z,996.00
2023-03-08T21:34:37.091Z,996.01
2023-03-08T21:39:49.441Z,995.97
2023-03-08T21:44:36.662Z,995.98
2023-03-08T21:49:39.263Z,995.73
2023-03-08T21:54:38.481Z,995.79
2023-03-08T21:59:39.712Z,995.95
2023-03-08T22:04:40.999Z,996.16
2023-03-08T22:09:42.264Z,995.67
2023-03-08T22:14:43.451Z,996.06
2023-03-08T22:19:44.579Z,996.59
2023-03-08T22:24:45.662Z,996.83
2023-03-08T22:29:46.838Z,997.05
2023-03-08T22:34:48.132Z,997.11
2023-03-08T22:39:49.312Z,996.96
2023-03-08T22:44:51.497Z,996.83
2023-03-08T22:49:50.665Z,996.55
2023-03-08T22:54:51.795Z,996.52
2023-03-08T22:59:54.000Z,996.58
2023-03-08T23:04:53.187Z,996.83
2023-03-08T23:09:54.355Z,997.04
2023-03-08T23:14:55.749Z,996.84
2023-03-08T23:19:56.914Z,996.68
2023-03-08T23:24:58.062Z,996.44
2023-03-08T23:30:00.186Z,996.52
2023-03-08T23:35:00.263Z,996.51
2023-03-08T23:39:59.432Z,996.60
2023-03-08T23:45:00.516Z,996.54
2023-03-08T23:50:03.248Z,996.70
2023-03-08T23:55:02.446Z,996.59
